Time;durP1;ratioP1;P1;durP2;ratioP2;P2;SDS_P1;SDS_P2;PMS_P1;PMS_P2;Temp;Humidity;BMP_temperature;BMP_pressure;BME280_temperature;BME280_humidity;BME280_pressure;Samples;Min_cycle;Max_cycle;Signal;HPM_P1;HPM_P2
2021/06/04 00:01:29;;;;;;;4.85;3.60;;;14.90;74.60;;;;;;5055733;28;20028;-81
2021/06/04 00:03:56;;;;;;;3.20;3.00;;;15.00;74.30;;;;;;5069234;28;20544;-81
2021/06/04 00:06:22;;;;;;;4.65;3.83;;;15.10;74.00;;;;;;5073300;28;20036;-81
2021/06/04 00:08:49;;;;;;;3.42;3.03;;;15.00;74.30;;;;;;5068019;28;20387;-81
2021/06/04 00:11:33;;;;;;;4.82;3.60;;;15.00;74.10;;;;;;5055902;28;20025;-81
2021/06/04 00:14:13;;;;;;;3.72;3.42;;;14.90;74.60;;;;;;5075358;28;20055;-81
2021/06/04 00:16:41;;;;;;;5.13;4.07;;;14.80;75.30;;;;;;5050718;28;20021;-81
2021/06/04 00:19:13;;;;;;;4.43;3.80;;;14.80;76.00;;;;;;5077132;28;20434;-81
2021/06/04 00:21:46;;;;;;;4.78;3.55;;;14.80;75.60;;;;;;5052377;28;20016;-81
2021/06/04 00:24:13;;;;;;;5.13;3.60;;;14.90;75.30;;;;;;5067430;28;20100;-81
2021/06/04 00:26:43;;;;;;;3.92;3.50;;;15.00;74.90;;;;;;5053277;28;20040;-81
2021/06/04 00:29:09;;;;;;;5.05;3.55;;;15.00;74.80;;;;;;5075913;28;20056;-82
2021/06/04 00:31:35;;;;;;;4.63;3.83;;;15.00;74.50;;;;;;5078505;28;20048;-81
2021/06/04 00:34:01;;;;;;;3.92;3.53;;;15.10;74.40;;;;;;5075524;28;20344;-82
2021/06/04 00:36:27;;;;;;;5.32;3.88;;;15.10;75.20;;;;;;5075979;28;20031;-81
2021/06/04 00:38:59;;;;;;;5.55;4.22;;;14.80;76.10;;;;;;5048954;28;20055;-81
2021/06/04 00:41:32;;;;;;;6.07;4.03;;;14.70;75.90;;;;;;5055428;28;20020;-81
2021/06/04 00:43:59;;;;;;;4.00;3.60;;;14.50;77.40;;;;;;5080457;28;20017;-81
2021/06/04 00:46:26;;;;;;;5.18;3.97;;;14.60;76.50;;;;;;5073559;28;20032;-81
2021/06/04 00:48:53;;;;;;;3.60;3.30;;;14.70;76.00;;;;;;5068918;28;20025;-81
2021/06/04 00:52:04;;;;;;;4.05;3.63;;;14.70;75.00;;;;;;5050969;28;20071;-81
2021/06/04 00:54:30;;;;;;;4.07;3.58;;;14.80;75.00;;;;;;4992050;28;20381;-81
2021/06/04 00:56:57;;;;;;;4.30;3.92;;;14.80;74.70;;;;;;5064447;28;20090;-81
2021/06/04 00:59:27;;;;;;;4.43;4.00;;;14.60;74.90;;;;;;5055638;28;20042;-81
2021/06/04 01:01:54;;;;;;;4.57;4.10;;;14.40;76.10;;;;;;5070673;28;20135;-81
2021/06/04 01:04:23;;;;;;;4.78;4.30;;;14.30;76.50;;;;;;5044894;28;20052;-81
2021/06/04 01:07:01;;;;;;;4.43;3.72;;;14.30;76.90;;;;;;5079399;28;20052;-81
2021/06/04 01:10:03;;;;;;;4.25;3.85;;;14.40;76.80;;;;;;5051550;28;20025;-81
2021/06/04 01:12:55;;;;;;;4.45;4.05;;;14.50;77.00;;;;;;5070966;28;20490;-81
2021/06/04 01:15:39;;;;;;;4.95;4.50;;;14.50;77.20;;;;;;5052943;28;20033;-81
2021/06/04 01:18:05;;;;;;;5.03;4.53;;;14.50;77.40;;;;;;5072387;28;20017;-81
2021/06/04 01:20:48;;;;;;;4.43;4.00;;;14.60;77.30;;;;;;5056013;28;20028;-81
2021/06/04 01:23:23;;;;;;;5.10;4.60;;;14.60;77.00;;;;;;5062944;28;20068;-81
2021/06/04 01:25:56;;;;;;;4.63;4.13;;;14.60;76.90;;;;;;5079828;28;20024;-80
2021/06/04 01:28:26;;;;;;;3.70;3.33;;;14.70;76.40;;;;;;5074659;28;20074;-80
2021/06/04 01:30:52;;;;;;;4.13;3.70;;;14.70;77.30;;;;;;5069215;28;20037;-81
2021/06/04 01:33:26;;;;;;;5.13;3.65;;;14.70;76.90;;;;;;5079204;28;20051;-81
2021/06/04 01:35:59;;;;;;;3.85;3.40;;;14.70;76.50;;;;;;5069618;28;20025;-82
2021/06/04 01:38:31;;;;;;;3.90;3.60;;;14.70;76.80;;;;;;5079341;28;20079;-81
2021/06/04 01:41:04;;;;;;;3.90;3.50;;;14.70;76.10;;;;;;5077590;28;20608;-81
2021/06/04 01:43:36;;;;;;;4.78;3.95;;;14.70;76.80;;;;;;5076133;28;20080;-80
2021/06/04 01:46:10;;;;;;;4.75;3.97;;;14.70;76.90;;;;;;5065156;28;20025;-81
2021/06/04 01:48:42;;;;;;;4.72;3.75;;;14.70;76.80;;;;;;5077756;28;20024;-81
2021/06/04 01:51:16;;;;;;;5.88;3.70;;;14.70;76.70;;;;;;5076247;28;20363;-81
2021/06/04 01:53:48;;;;;;;4.63;4.22;;;14.80;77.40;;;;;;5068978;28;20032;-81
2021/06/04 01:56:26;;;;;;;5.68;4.25;;;14.80;77.30;;;;;;5055006;28;20392;-81
2021/06/04 01:59:06;;;;;;;4.07;3.67;;;14.80;77.80;;;;;;5072722;28;20025;-81
2021/06/04 02:01:39;;;;;;;5.45;4.25;;;14.80;77.60;;;;;;5075258;28;20036;-81
2021/06/04 02:04:07;;;;;;;4.72;4.28;;;14.90;77.80;;;;;;5074107;28;20091;-81
2021/06/04 02:06:33;;;;;;;4.60;3.90;;;14.90;78.20;;;;;;5074183;28;20024;-81
2021/06/04 02:09:00;;;;;;;5.30;4.80;;;14.90;78.40;;;;;;5058800;28;20029;-81
2021/06/04 02:11:30;;;;;;;4.65;4.20;;;14.90;78.60;;;;;;5077236;28;20025;-81
2021/06/04 02:13:59;;;;;;;5.07;4.30;;;14.90;78.50;;;;;;5082035;28;20025;-81
2021/06/04 02:16:46;;;;;;;4.80;4.00;;;14.90;78.80;;;;;;5078564;28;20593;-81
2021/06/04 02:19:27;;;;;;;6.23;4.00;;;14.90;78.10;;;;;;5080828;28;20028;-81
2021/06/04 02:22:04;;;;;;;4.43;4.03;;;14.90;77.60;;;;;;5061104;28;20035;-80
2021/06/04 02:24:46;;;;;;;5.00;4.07;;;15.00;79.40;;;;;;5056823;28;20032;-81
2021/06/04 02:27:26;;;;;;;4.20;3.80;;;15.00;78.10;;;;;;5074838;28;20024;-81
2021/06/04 02:29:59;;;;;;;4.97;3.63;;;15.00;77.80;;;;;;5074386;28;20024;-81
2021/06/04 02:32:46;;;;;;;5.53;4.20;;;15.00;79.30;;;;;;5078506;28;20108;-81
2021/06/04 02:35:37;;;;;;;4.72;3.75;;;15.00;79.20;;;;;;5070801;28;20024;-80
2021/06/04 02:38:20;;;;;;;4.60;4.20;;;14.90;79.10;;;;;;5050204;28;20090;-80
2021/06/04 02:40:54;;;;;;;4.03;3.72;;;15.00;78.60;;;;;;5074024;28;20100;-79
2021/06/04 02:43:28;;;;;;;5.38;3.88;;;14.90;78.60;;;;;;5067814;28;20082;-80
2021/06/04 02:46:02;;;;;;;4.28;3.83;;;14.90;78.40;;;;;;5074990;28;20471;-80
2021/06/04 02:48:28;;;;;;;4.63;4.03;;;14.90;78.60;;;;;;5075969;28;20025;-80
2021/06/04 02:51:07;;;;;;;4.30;3.90;;;14.90;78.80;;;;;;5078447;28;20031;-80
2021/06/04 02:53:49;;;;;;;4.57;3.78;;;14.80;79.20;;;;;;5076083;28;20024;-81
2021/06/04 02:56:26;;;;;;;4.47;4.07;;;14.80;79.50;;;;;;5062116;28;20029;-80
2021/06/04 02:59:00;;;;;;;4.85;4.28;;;14.70;80.10;;;;;;5053848;28;20028;-80
2021/06/04 03:01:27;;;;;;;4.53;4.10;;;14.80;79.70;;;;;;5056664;28;20040;-80
2021/06/04 03:03:58;;;;;;;5.63;4.20;;;14.80;79.80;;;;;;5071293;28;20112;-80
2021/06/04 03:06:30;;;;;;;5.13;4.30;;;14.80;79.10;;;;;;5049116;28;20032;-81
2021/06/04 03:09:00;;;;;;;4.55;4.10;;;14.90;79.00;;;;;;5072504;28;20036;-80
2021/06/04 03:11:28;;;;;;;5.53;3.95;;;14.90;79.60;;;;;;5051715;28;20031;-80
2021/06/04 03:13:55;;;;;;;6.90;4.13;;;14.90;79.60;;;;;;5068549;28;20039;-81
2021/06/04 03:16:23;;;;;;;6.18;4.15;;;14.90;79.40;;;;;;5078947;28;20362;-81
2021/06/04 03:18:53;;;;;;;6.10;4.30;;;14.90;80.50;;;;;;5054744;28;20032;-80
2021/06/04 03:21:27;;;;;;;4.70;3.97;;;14.90;79.70;;;;;;5072753;28;20147;-81
2021/06/04 03:23:53;;;;;;;5.60;4.00;;;15.00;79.50;;;;;;5083190;28;20078;-81
2021/06/04 03:26:23;;;;;;;4.25;3.85;;;15.00;79.40;;;;;;5074377;28;20305;-80
2021/06/04 03:28:52;;;;;;;5.00;3.85;;;14.90;79.10;;;;;;5069660;28;20558;-80
2021/06/04 03:31:19;;;;;;;4.90;3.92;;;14.90;79.10;;;;;;5071205;28;20044;-80
2021/06/04 03:33:46;;;;;;;4.45;4.00;;;14.90;79.00;;;;;;5075036;28;20020;-80
2021/06/04 03:36:17;;;;;;;5.05;4.55;;;14.90;79.20;;;;;;5072813;28;20028;-80
2021/06/04 03:38:43;;;;;;;5.60;4.07;;;14.90;79.40;;;;;;5078134;28;20045;-81
2021/06/04 03:41:11;;;;;;;4.85;4.35;;;14.90;80.10;;;;;;5049523;28;20035;-82
2021/06/04 03:43:37;;;;;;;4.68;4.25;;;14.90;79.80;;;;;;5063862;28;20106;-83
2021/06/04 03:46:03;;;;;;;4.72;4.32;;;14.90;79.60;;;;;;5071964;28;20027;-83
2021/06/04 03:48:32;;;;;;;5.70;4.50;;;14.90;79.10;;;;;;5081791;28;20024;-84
2021/06/04 03:51:01;;;;;;;5.72;4.53;;;14.90;79.10;;;;;;5059089;28;20039;-82
2021/06/04 03:53:27;;;;;;;5.32;4.78;;;14.90;79.50;;;;;;5058631;28;20021;-83
2021/06/04 03:55:54;;;;;;;4.55;4.05;;;14.90;79.90;;;;;;5074594;28;20028;-83
2021/06/04 03:58:20;;;;;;;5.13;4.38;;;14.90;80.00;;;;;;5054202;28;20032;-84
2021/06/04 04:00:56;;;;;;;6.22;4.82;;;14.90;80.20;;;;;;5067453;28;20071;-83
2021/06/04 04:03:24;;;;;;;6.65;4.85;;;14.90;79.90;;;;;;5078931;28;20040;-82
2021/06/04 04:05:50;;;;;;;6.50;4.75;;;15.00;79.50;;;;;;5079189;28;20039;-83
2021/06/04 04:08:19;;;;;;;5.70;4.55;;;15.00;79.80;;;;;;5056297;28;20037;-84
2021/06/04 04:10:45;;;;;;;6.05;4.40;;;15.00;79.20;;;;;;5065602;28;20382;-83
2021/06/04 04:13:14;;;;;;;7.05;4.35;;;15.10;79.30;;;;;;5074953;28;20516;-83
2021/06/04 04:15:39;;;;;;;5.97;4.80;;;15.10;79.10;;;;;;5054545;28;20070;-83
2021/06/04 04:18:05;;;;;;;5.82;4.80;;;15.20;79.30;;;;;;5060867;28;20020;-84
2021/06/04 04:20:38;;;;;;;6.68;4.40;;;15.20;80.00;;;;;;5073685;28;20032;-84
2021/06/04 04:23:05;;;;;;;5.20;4.13;;;15.20;79.60;;;;;;5053054;28;20115;-84
2021/06/04 04:25:34;;;;;;;6.03;4.63;;;15.20;79.60;;;;;;5053702;28;20036;-83
2021/06/04 04:28:00;;;;;;;5.78;4.55;;;15.20;79.70;;;;;;5052641;28;20020;-83
2021/06/04 04:30:26;;;;;;;5.07;4.57;;;15.10;82.70;;;;;;5065805;28;20097;-84
2021/06/04 04:32:52;;;;;;;6.10;4.50;;;15.00;83.10;;;;;;5046748;28;20028;-83
2021/06/04 04:35:26;;;;;;;4.88;4.40;;;15.00;82.50;;;;;;5054758;28;20534;-81
2021/06/04 04:37:53;;;;;;;5.28;4.78;;;15.10;82.10;;;;;;5045390;28;20059;-83
2021/06/04 04:40:21;;;;;;;6.68;4.95;;;15.20;81.90;;;;;;5063409;28;20709;-83
2021/06/04 04:42:48;;;;;;;5.65;4.18;;;15.20;81.90;;;;;;5070911;28;20028;-83
2021/06/04 04:45:18;;;;;;;4.68;4.10;;;15.20;82.40;;;;;;5051453;28;20059;-82
2021/06/04 04:47:44;;;;;;;6.85;5.13;;;15.20;82.90;;;;;;5050059;28;20078;-82
2021/06/04 04:50:11;;;;;;;6.68;5.18;;;15.20;83.00;;;;;;5072372;28;20028;-83
2021/06/04 04:52:37;;;;;;;4.85;4.35;;;15.20;82.20;;;;;;5071022;28;20016;-82
2021/06/04 04:55:04;;;;;;;6.15;5.13;;;15.30;82.10;;;;;;5067373;28;20031;-82
2021/06/04 04:57:30;;;;;;;5.90;5.25;;;15.40;81.30;;;;;;5070867;28;20029;-83
2021/06/04 04:59:56;;;;;;;6.18;5.57;;;15.40;81.70;;;;;;5065532;28;20443;-83
2021/06/04 05:02:23;;;;;;;5.93;4.70;;;15.40;81.80;;;;;;5052930;28;20040;-84
2021/06/04 05:04:48;;;;;;;5.57;4.60;;;15.50;82.70;;;;;;5071538;28;20021;-84
2021/06/04 05:07:15;;;;;;;7.72;5.10;;;15.50;82.70;;;;;;5051882;28;20083;-83
2021/06/04 05:09:40;;;;;;;7.90;5.20;;;15.60;81.80;;;;;;5043646;28;20035;-81
2021/06/04 05:12:07;;;;;;;6.15;5.00;;;15.60;82.40;;;;;;5044450;28;20059;-83
2021/06/04 05:14:33;;;;;;;8.32;6.05;;;15.60;82.10;;;;;;5070231;28;20454;-83
2021/06/04 05:17:00;;;;;;;6.90;5.45;;;15.60;81.40;;;;;;5046272;28;20035;-83
2021/06/04 05:19:27;;;;;;;7.55;5.10;;;15.60;81.50;;;;;;5053291;28;20033;-84
2021/06/04 05:21:53;;;;;;;7.68;4.95;;;15.60;82.20;;;;;;5074008;28;20101;-81
2021/06/04 05:24:19;;;;;;;6.25;5.28;;;15.60;81.40;;;;;;5049420;28;20028;-83
2021/06/04 05:26:44;;;;;;;5.88;5.07;;;15.60;82.00;;;;;;5067872;28;20021;-84
2021/06/04 05:29:11;;;;;;;6.90;5.68;;;15.60;81.80;;;;;;5065488;28;20025;-82
2021/06/04 05:31:38;;;;;;;8.23;5.20;;;15.70;80.90;;;;;;5062377;28;20036;-83
2021/06/04 05:34:04;;;;;;;6.87;5.17;;;15.70;80.30;;;;;;5052524;28;20078;-83
2021/06/04 05:36:32;;;;;;;5.40;4.90;;;15.70;80.40;;;;;;5051445;28;20271;-83
2021/06/04 05:39:00;;;;;;;;;;;15.80;80.30;;;;;;5072043;28;20032;-83
2021/06/04 05:41:26;;;;;;;5.78;4.65;;;15.80;79.90;;;;;;5065553;28;19908;-82
2021/06/04 05:43:52;;;;;;;6.68;5.10;;;15.90;79.70;;;;;;5052920;28;20032;-82
2021/06/04 05:46:19;;;;;;;6.60;5.13;;;15.90;79.60;;;;;;5048609;28;20029;-83
2021/06/04 05:48:45;;;;;;;5.35;4.45;;;15.90;80.30;;;;;;5066768;28;20029;-83
2021/06/04 05:51:19;;;;;;;8.55;4.72;;;16.00;79.50;;;;;;5047482;28;20654;-84
2021/06/04 05:53:46;;;;;;;7.10;5.10;;;16.00;79.80;;;;;;5068462;28;20021;-82
2021/06/04 05:56:14;;;;;;;5.55;5.05;;;16.00;80.00;;;;;;5070226;28;20107;-82
2021/06/04 05:58:42;;;;;;;6.20;5.00;;;16.10;79.30;;;;;;5053031;28;20025;-83
2021/06/04 06:01:12;;;;;;;6.00;5.40;;;16.10;79.00;;;;;;5046926;28;20064;-82
2021/06/04 06:03:38;;;;;;;6.18;4.75;;;16.20;79.50;;;;;;5049218;28;20028;-81
2021/06/04 06:06:05;;;;;;;6.18;5.32;;;16.20;79.00;;;;;;5068339;28;20025;-81
2021/06/04 06:08:31;;;;;;;8.35;5.50;;;16.30;79.40;;;;;;5072656;28;20047;-81
2021/06/04 06:10:57;;;;;;;6.25;5.60;;;16.30;80.30;;;;;;5052266;28;20373;-80
2021/06/04 06:13:24;;;;;;;6.57;5.78;;;16.30;78.40;;;;;;5066301;28;20112;-82
2021/06/04 06:15:51;;;;;;;9.52;6.38;;;16.40;78.30;;;;;;5065592;28;20052;-80
2021/06/04 06:18:17;;;;;;;7.13;5.28;;;16.40;78.10;;;;;;5095286;28;20434;-82
2021/06/04 06:20:43;;;;;;;7.65;5.63;;;16.50;77.70;;;;;;5061093;28;20048;-81
2021/06/04 06:23:12;;;;;;;6.75;6.05;;;16.60;77.90;;;;;;5077319;28;20368;-82
2021/06/04 06:25:50;;;;;;;7.28;6.00;;;16.60;78.50;;;;;;5077153;28;20020;-82
2021/06/04 06:28:19;;;;;;;7.10;5.82;;;16.60;78.00;;;;;;5075582;28;20031;-83
2021/06/04 06:30:46;;;;;;;8.02;6.20;;;16.70;77.70;;;;;;5076869;28;20025;-83
2021/06/04 06:33:12;;;;;;;7.22;6.20;;;16.70;77.00;;;;;;5078533;28;20048;-84
2021/06/04 06:35:40;;;;;;;6.85;6.15;;;16.80;76.60;;;;;;5083452;28;20016;-84
2021/06/04 06:38:08;;;;;;;7.28;5.93;;;16.80;76.90;;;;;;5098222;28;20027;-83
2021/06/04 06:40:35;;;;;;;6.40;5.80;;;16.90;76.90;;;;;;5094595;28;20044;-84
2021/06/04 06:43:00;;;;;;;7.55;6.07;;;16.90;76.50;;;;;;5049577;28;20024;-84
2021/06/04 06:45:27;;;;;;;8.63;7.07;;;17.00;75.40;;;;;;5055723;28;20420;-84
2021/06/04 06:47:54;;;;;;;9.05;6.40;;;17.00;75.30;;;;;;5059123;28;20379;-83
2021/06/04 06:50:22;;;;;;;8.77;6.47;;;17.00;75.60;;;;;;5091652;28;20028;-83
2021/06/04 06:52:49;;;;;;;9.02;6.53;;;17.10;76.00;;;;;;5077064;28;20032;-83
2021/06/04 06:55:15;;;;;;;8.82;6.40;;;17.10;75.90;;;;;;5077265;28;20025;-83
2021/06/04 06:57:41;;;;;;;7.25;6.20;;;17.20;76.60;;;;;;5057041;28;20063;-83
2021/06/04 07:00:14;;;;;;;8.60;6.38;;;17.20;76.50;;;;;;5052965;28;20024;-84
2021/06/04 07:02:39;;;;;;;7.47;6.45;;;17.30;76.20;;;;;;5050750;28;20024;-84
2021/06/04 07:05:06;;;;;;;8.18;6.30;;;17.30;76.20;;;;;;5058406;28;20059;-82
2021/06/04 07:07:31;;;;;;;9.32;7.07;;;17.40;76.20;;;;;;5058502;28;20252;-83
2021/06/04 07:09:57;;;;;;;8.35;6.95;;;17.50;76.40;;;;;;5048991;28;20111;-82
2021/06/04 07:12:23;;;;;;;7.68;6.68;;;17.50;76.00;;;;;;5074498;28;20027;-83
2021/06/04 07:14:50;;;;;;;7.90;6.75;;;17.60;76.10;;;;;;5067498;28;20016;-82
2021/06/04 07:17:16;;;;;;;9.77;6.80;;;17.60;76.20;;;;;;5060681;28;20029;-83
2021/06/04 07:19:42;;;;;;;9.25;7.03;;;17.70;75.90;;;;;;5073560;28;20025;-84
2021/06/04 07:22:08;;;;;;;10.07;7.38;;;17.80;76.30;;;;;;5047525;28;20034;-82
2021/06/04 07:24:34;;;;;;;11.60;9.75;;;17.80;75.80;;;;;;5066410;28;20040;-83
2021/06/04 07:27:01;;;;;;;10.35;7.57;;;17.90;75.80;;;;;;5052639;28;20035;-83
2021/06/04 07:29:29;;;;;;;9.52;7.20;;;18.00;76.20;;;;;;5048098;28;20166;-82
2021/06/04 07:31:56;;;;;;;10.73;7.30;;;18.10;76.00;;;;;;5066370;28;20049;-83
2021/06/04 07:34:23;;;;;;;9.68;7.55;;;18.20;76.20;;;;;;5069460;28;20035;-83
2021/06/04 07:36:51;;;;;;;8.85;7.70;;;18.20;76.00;;;;;;5065041;28;20029;-83
2021/06/04 07:39:22;;;;;;;7.97;7.18;;;18.30;76.90;;;;;;5069726;28;20050;-83
2021/06/04 07:41:48;;;;;;;13.90;8.10;;;18.40;76.00;;;;;;5067311;28;20086;-84
2021/06/04 07:44:15;;;;;;;8.32;7.45;;;18.50;76.50;;;;;;5068534;28;20028;-83
2021/06/04 07:46:42;;;;;;;9.90;8.15;;;18.60;77.10;;;;;;5047762;28;20082;-83
2021/06/04 07:49:08;;;;;;;10.35;8.07;;;18.60;76.00;;;;;;5047410;28;20037;-83
2021/06/04 07:51:38;;;;;;;10.68;8.20;;;18.70;76.60;;;;;;5064270;28;20093;-83
2021/06/04 07:54:05;;;;;;;10.25;7.90;;;18.80;76.60;;;;;;5068918;28;20483;-82
2021/06/04 07:56:32;;;;;;;12.98;8.30;;;18.90;76.30;;;;;;5052336;28;20499;-82
2021/06/04 07:58:57;;;;;;;14.10;8.55;;;18.90;76.70;;;;;;5065088;28;20119;-83
2021/06/04 08:01:23;;;;;;;10.13;8.23;;;19.00;76.60;;;;;;5066998;28;20151;-82
2021/06/04 08:03:49;;;;;;;12.82;7.93;;;19.10;75.70;;;;;;5067407;28;20032;-82
2021/06/04 08:06:18;;;;;;;10.65;8.05;;;19.10;75.30;;;;;;5049048;28;20028;-82
2021/06/04 08:08:44;;;;;;;9.95;7.40;;;19.20;75.30;;;;;;5066437;28;20036;-82
2021/06/04 08:11:18;;;;;;;11.38;7.32;;;19.20;75.50;;;;;;5047313;28;20032;-83
2021/06/04 08:13:45;;;;;;;8.63;6.97;;;19.30;74.80;;;;;;5048182;28;20025;-81
2021/06/04 08:16:12;;;;;;;9.05;7.43;;;19.40;75.10;;;;;;5065818;28;20016;-81
2021/06/04 08:18:39;;;;;;;11.23;7.03;;;19.50;74.60;;;;;;5068643;28;20585;-80
2021/06/04 08:21:09;;;;;;;8.60;7.32;;;19.50;74.30;;;;;;5063570;28;20025;-79
2021/06/04 08:23:37;;;;;;;10.93;7.22;;;19.60;74.60;;;;;;5069424;28;20036;-80
2021/06/04 08:26:06;;;;;;;10.80;7.72;;;19.70;75.00;;;;;;5070303;28;20033;-81
2021/06/04 08:28:32;;;;;;;8.80;7.25;;;19.80;74.30;;;;;;5066701;28;20558;-79
2021/06/04 08:30:59;;;;;;;9.27;8.10;;;19.80;74.30;;;;;;5048239;28;20047;-80
2021/06/04 08:33:32;;;;;;;10.10;7.93;;;19.90;73.80;;;;;;5066505;28;20024;-81
2021/06/04 08:35:58;;;;;;;9.02;7.38;;;20.00;74.20;;;;;;5071429;28;20028;-81
2021/06/04 08:38:25;;;;;;;10.95;7.97;;;20.00;72.80;;;;;;5069580;28;20103;-81
2021/06/04 08:40:52;;;;;;;10.60;7.77;;;20.10;72.80;;;;;;5062783;28;20108;-80
2021/06/04 08:43:33;;;;;;;10.48;7.68;;;20.10;73.80;;;;;;5049623;28;20174;-80
2021/06/04 08:46:22;;;;;;;12.52;8.30;;;20.20;72.90;;;;;;5063668;28;20103;-80
2021/06/04 08:48:53;;;;;;;8.85;7.10;;;20.30;72.80;;;;;;5064642;28;20028;-81
2021/06/04 08:51:30;;;;;;;10.95;8.05;;;20.40;72.60;;;;;;5043310;28;20552;-81
2021/06/04 08:54:12;;;;;;;11.65;7.90;;;20.50;72.80;;;;;;5047653;28;20020;-82
2021/06/04 08:57:09;;;;;;;9.98;7.85;;;20.50;71.20;;;;;;5067578;28;20029;-81
2021/06/04 08:59:36;;;;;;;10.18;8.02;;;20.60;72.10;;;;;;5046267;28;20035;-80
2021/06/04 09:02:10;;;;;;;9.30;8.17;;;20.70;71.80;;;;;;5045727;28;20041;-81
2021/06/04 09:04:47;;;;;;;10.60;8.55;;;20.80;72.00;;;;;;5044264;28;20021;-81
2021/06/04 09:07:19;;;;;;;9.40;7.75;;;21.00;72.10;;;;;;5063805;28;20031;-81
2021/06/04 09:10:10;;;;;;;9.25;7.85;;;21.10;72.70;;;;;;5064462;28;20067;-81
2021/06/04 09:13:01;;;;;;;9.82;7.63;;;21.30;71.80;;;;;;5066686;28;20045;-81
2021/06/04 09:15:31;;;;;;;9.98;8.35;;;21.40;69.60;;;;;;5064527;28;20032;-81
2021/06/04 09:18:19;;;;;;;8.50;7.43;;;21.40;69.30;;;;;;5054226;28;20033;-80
2021/06/04 09:21:00;;;;;;;10.18;8.00;;;21.50;68.90;;;;;;5050464;28;20039;-81
2021/06/04 09:23:38;;;;;;;9.82;8.75;;;21.60;70.00;;;;;;5050499;28;20089;-81
2021/06/04 09:26:06;;;;;;;11.93;8.55;;;21.60;70.00;;;;;;5050557;28;20020;-82
2021/06/04 09:28:47;;;;;;;10.27;7.68;;;21.60;69.00;;;;;;5048197;28;20049;-81
2021/06/04 09:31:12;;;;;;;11.27;8.35;;;21.70;68.10;;;;;;5051186;28;20039;-81
2021/06/04 09:34:10;;;;;;;9.77;7.50;;;21.80;68.60;;;;;;5067134;28;20076;-80
2021/06/04 09:36:50;;;;;;;14.18;7.75;;;21.90;68.40;;;;;;5039981;28;20036;-79
2021/06/04 09:39:25;;;;;;;9.10;6.80;;;22.00;65.30;;;;;;5047097;28;20470;-80
2021/06/04 09:41:53;;;;;;;11.35;7.00;;;22.10;67.60;;;;;;5066073;28;20033;-80
2021/06/04 09:44:19;;;;;;;;;;;22.10;67.20;;;;;;5049127;28;20028;-82
2021/06/04 09:46:59;;;;;;;9.77;6.95;;;22.20;65.90;;;;;;5063344;28;19908;-80
2021/06/04 09:49:30;;;;;;;12.57;7.72;;;22.20;65.20;;;;;;5047268;28;20031;-80
2021/06/04 09:52:24;;;;;;;9.45;7.63;;;22.30;66.40;;;;;;5071593;28;20020;-80
2021/06/04 09:55:14;;;;;;;10.63;6.57;;;22.30;65.70;;;;;;5050443;28;20025;-81
2021/06/04 09:58:15;;;;;;;7.38;5.78;;;22.30;63.50;;;;;;5049216;28;20051;-80
2021/06/04 10:00:51;;;;;;;8.13;5.97;;;22.40;64.20;;;;;;5050596;28;20037;-80
2021/06/04 10:03:51;;;;;;;8.68;5.75;;;22.50;63.40;;;;;;5075659;28;20036;-79
2021/06/04 10:06:19;;;;;;;7.97;5.93;;;22.70;61.80;;;;;;5080072;28;20040;-81
2021/06/04 10:08:55;;;;;;;8.15;6.00;;;22.70;62.40;;;;;;5077600;28;20048;-81
2021/06/04 10:11:32;;;;;;;6.22;5.63;;;22.80;62.20;;;;;;5060796;28;20099;-82
2021/06/04 10:19:31;;;;;;;25.35;7.50;;;23.00;61.30;;;;;;5073250;28;20367;-82
2021/06/04 10:22:11;;;;;;;7.25;5.53;;;23.00;61.20;;;;;;5053426;28;22008;-82
2021/06/04 10:24:41;;;;;;;6.22;5.25;;;23.20;59.40;;;;;;5067315;28;20021;-83
2021/06/04 10:27:12;;;;;;;6.45;5.55;;;23.40;59.80;;;;;;5074474;28;20032;-84
2021/06/04 10:29:38;;;;;;;8.00;5.25;;;23.50;58.50;;;;;;5055709;28;20032;-82
2021/06/04 10:32:11;;;;;;;7.45;5.72;;;23.60;59.50;;;;;;5051952;28;20055;-78
2021/06/04 10:35:05;;;;;;;7.22;5.35;;;23.60;58.10;;;;;;5068350;28;20071;-82
2021/06/04 10:37:44;;;;;;;7.40;5.70;;;23.70;59.20;;;;;;5053941;28;20118;-84
2021/06/04 10:40:18;;;;;;;10.82;6.50;;;23.70;59.60;;;;;;5054556;28;20048;-84
2021/06/04 10:42:50;;;;;;;6.25;5.25;;;23.90;60.20;;;;;;5050612;28;20029;-86
2021/06/04 10:45:19;;;;;;;6.00;5.47;;;24.00;59.80;;;;;;5065639;28;20048;-78
2021/06/04 10:48:26;;;;;;;5.07;4.40;;;24.20;57.10;;;;;;5067297;28;20622;-78
2021/06/04 10:50:58;;;;;;;5.85;4.90;;;24.20;56.40;;;;;;5063170;28;20482;-78
2021/06/04 10:54:01;;;;;;;6.47;4.60;;;24.20;55.70;;;;;;5067890;28;20037;-78
2021/06/04 10:56:59;;;;;;;5.53;4.53;;;24.40;56.70;;;;;;5066420;28;20480;-78
2021/06/04 11:00:05;;;;;;;6.38;4.32;;;24.40;55.50;;;;;;5068730;28;20047;-80
2021/06/04 11:03:02;;;;;;;6.20;4.22;;;24.40;53.90;;;;;;5063580;28;20048;-82
2021/06/04 11:05:49;;;;;;;4.80;4.30;;;24.50;53.00;;;;;;5058459;28;20029;-82
2021/06/04 11:08:26;;;;;;;4.97;4.30;;;24.60;55.40;;;;;;5068990;28;20711;-81
2021/06/04 11:11:04;;;;;;;6.43;4.30;;;24.70;54.30;;;;;;5070626;28;20056;-80
2021/06/04 11:13:36;;;;;;;5.80;4.50;;;24.80;54.00;;;;;;5049141;28;20032;-80
2021/06/04 11:16:13;;;;;;;5.63;4.47;;;24.80;53.70;;;;;;5051853;28;20017;-81
2021/06/04 11:18:44;;;;;;;4.95;4.30;;;24.80;53.80;;;;;;5052321;28;20029;-80
2021/06/04 11:21:24;;;;;;;5.72;4.85;;;24.90;54.30;;;;;;5044131;28;20079;-82
2021/06/04 11:24:04;;;;;;;5.82;3.80;;;25.00;53.30;;;;;;5050494;28;20092;-82
2021/06/04 11:26:53;;;;;;;4.28;3.88;;;24.90;52.20;;;;;;5068127;28;20021;-83
2021/06/04 11:29:26;;;;;;;3.88;3.47;;;25.00;49.90;;;;;;5048614;28;20087;-81
2021/06/04 11:32:21;;;;;;;4.25;3.75;;;25.10;49.60;;;;;;5068710;28;20036;-81
2021/06/04 11:34:59;;;;;;;2.83;2.63;;;25.10;51.10;;;;;;5052084;28;20108;-80
2021/06/04 11:37:31;;;;;;;3.20;2.60;;;25.10;46.90;;;;;;5071670;28;20020;-80
2021/06/04 11:40:14;;;;;;;3.85;2.92;;;25.20;46.30;;;;;;5049430;28;20101;-83
2021/06/04 11:43:11;;;;;;;4.18;3.15;;;25.30;47.60;;;;;;5065395;28;20307;-84
2021/06/04 11:45:37;;;;;;;;;;;25.30;48.20;;;;;;5039390;28;20025;-84
2021/06/04 11:48:20;;;;;;;3.42;3.13;;;25.50;48.70;;;;;;5065143;28;20353;-84
2021/06/04 11:50:48;;;;;;;5.93;3.42;;;25.30;47.20;;;;;;5046724;28;20098;-82
2021/06/04 11:53:26;;;;;;;4.07;3.20;;;25.30;47.90;;;;;;5046639;28;20025;-83
2021/06/04 11:55:53;;;;;;;;;;;25.30;50.70;;;;;;5054372;28;20425;-83
2021/06/04 11:58:31;;;;;;;3.95;3.15;;;25.30;50.90;;;;;;5055896;28;20293;-83
2021/06/04 12:01:22;;;;;;;4.30;3.00;;;25.10;48.60;;;;;;5046507;28;20101;-82
2021/06/04 12:04:00;;;;;;;4.55;3.03;;;25.10;49.70;;;;;;5049121;28;20029;-81
2021/06/04 12:06:27;;;;;;;4.63;3.78;;;25.20;49.70;;;;;;5066746;28;20039;-82
2021/06/04 12:08:58;;;;;;;3.45;3.15;;;25.10;52.20;;;;;;5048155;28;20028;-82
2021/06/04 12:11:29;;;;;;;2.83;2.63;;;25.20;53.30;;;;;;5066946;28;20033;-81
2021/06/04 12:13:55;;;;;;;3.75;2.88;;;25.10;50.00;;;;;;5066323;28;20025;-82
2021/06/04 12:16:29;;;;;;;5.20;2.90;;;25.00;51.00;;;;;;5063201;28;20112;-83
2021/06/04 12:19:04;;;;;;;3.50;3.20;;;24.90;50.20;;;;;;5045684;28;20024;-82
2021/06/04 12:21:42;;;;;;;3.30;2.42;;;24.80;51.40;;;;;;5063406;28;20108;-84
2021/06/04 12:24:21;;;;;;;7.22;2.75;;;24.70;50.70;;;;;;5064012;28;20055;-82
2021/06/04 12:26:53;;;;;;;4.50;2.58;;;24.20;52.00;;;;;;5062187;28;20032;-84
2021/06/04 12:29:26;;;;;;;3.75;3.45;;;23.90;55.20;;;;;;5048202;28;20051;-85
2021/06/04 12:31:54;;;;;;;9.20;3.38;;;23.70;55.60;;;;;;5060805;28;20406;-81
2021/06/04 12:34:35;;;;;;;3.38;2.47;;;23.40;56.10;;;;;;5044040;28;20082;-81
2021/06/04 12:37:09;;;;;;;3.70;2.28;;;23.10;57.10;;;;;;5065516;28;20032;-82
2021/06/04 12:39:38;;;;;;;1.92;1.80;;;22.90;57.20;;;;;;5043349;28;20103;-82
2021/06/04 12:42:24;;;;;;;2.33;1.52;;;22.80;54.40;;;;;;5045170;28;20024;-81
2021/06/04 12:45:01;;;;;;;1.70;1.60;;;22.60;54.00;;;;;;5007933;28;20037;-82
2021/06/04 12:47:50;;;;;;;3.20;1.70;;;22.40;54.10;;;;;;5064054;28;20052;-81
2021/06/04 12:50:21;;;;;;;3.65;1.80;;;22.30;53.70;;;;;;5046401;28;20119;-81
2021/06/04 12:52:49;;;;;;;2.13;1.92;;;22.30;54.80;;;;;;5064941;28;20031;-84
2021/06/04 12:55:30;;;;;;;1.48;1.38;;;22.20;55.80;;;;;;5044939;28;20025;-82
2021/06/04 12:58:11;;;;;;;2.00;1.52;;;22.10;54.70;;;;;;5065195;28;20021;-81
2021/06/04 13:00:37;;;;;;;4.43;1.58;;;22.00;52.40;;;;;;5042789;28;20055;-79
2021/06/04 13:03:28;;;;;;;2.53;1.50;;;22.00;54.00;;;;;;5046739;28;20037;-81
2021/06/04 13:05:56;;;;;;;1.48;1.38;;;21.70;54.30;;;;;;5037959;28;20047;-80
2021/06/04 13:08:46;;;;;;;1.73;1.45;;;21.60;55.90;;;;;;5066726;28;20179;-80
2021/06/04 13:11:13;;;;;;;2.20;1.50;;;21.60;54.80;;;;;;5048667;28;20437;-81
2021/06/04 13:13:43;;;;;;;2.28;1.40;;;21.40;55.60;;;;;;5051470;28;20191;-86
2021/06/04 13:16:21;;;;;;;4.63;1.35;;;21.50;56.40;;;;;;5062980;28;20081;-83
2021/06/04 13:18:50;;;;;;;1.42;1.33;;;21.50;57.10;;;;;;5066526;28;20111;-84